sensor_id;sensor_type;location;lat;lon;timestamp;pressure;altitude;pressure_sealevel;temperature;humidity
45357;BME280;31092;51.924;21.448;2023-04-08T00:01:04;100711.03;;;3.77;100.00
45357;BME280;31092;51.924;21.448;2023-04-08T00:03:30;100801.25;;;4.20;100.00
45357;BME280;31092;51.924;21.448;2023-04-08T00:05:56;100823.59;;;4.30;100.00
45357;BME280;31092;51.924;21.448;2023-04-08T00:08:22;100736.81;;;3.76;100.00
45357;BME280;31092;51.924;21.448;2023-04-08T00:10:47;100705.03;;;3.49;100.00
45357;BME280;31092;51.924;21.448;2023-04-08T00:13:13;100810.44;;;4.03;100.00
45357;BME280;31092;51.924;21.448;2023-04-08T00:15:40;100814.50;;;3.96;100.00
45357;BME280;31092;51.924;21.448;2023-04-08T00:18:06;100717.28;;;3.26;100.00
45357;BME280;31092;51.924;21.448;2023-04-08T00:20:32;100731.78;;;3.22;100.00
45357;BME280;31092;51.924;21.448;2023-04-08T00:22:58;100793.13;;;3.46;100.00
45357;BME280;31092;51.924;21.448;2023-04-08T00:25:23;100806.66;;;3.43;100.00
45357;BME280;31092;51.924;21.448;2023-04-08T00:27:49;100779.16;;;3.17;100.00
45357;BME280;31092;51.924;21.448;2023-04-08T00:30:15;100736.53;;;2.79;100.00
45357;BME280;31092;51.924;21.448;2023-04-08T00:32:40;100821.31;;;3.23;100.00
45357;BME280;31092;51.924;21.448;2023-04-08T00:35:06;100716.06;;;2.54;100.00
45357;BME280;31092;51.924;21.448;2023-04-08T00:37:32;100759.72;;;2.64;100.00
45357;BME280;31092;51.924;21.448;2023-04-08T00:39:57;100723.19;;;2.26;100.00
45357;BME280;31092;51.924;21.448;2023-04-08T00:42:23;100786.09;;;2.40;100.00
45357;BME280;31092;51.924;21.448;2023-04-08T00:44:48;100780.66;;;2.14;100.00
45357;BME280;31092;51.924;21.448;2023-04-08T00:47:14;100804.59;;;2.14;100.00
45357;BME280;31092;51.924;21.448;2023-04-08T00:49:42;100810.41;;;2.07;100.00
45357;BME280;31092;51.924;21.448;2023-04-08T00:52:07;100826.91;;;1.98;100.00
45357;BME280;31092;51.924;21.448;2023-04-08T00:54:35;100776.09;;;1.61;100.00
45357;BME280;31092;51.924;21.448;2023-04-08T00:57:01;100725.91;;;1.13;100.00
45357;BME280;31092;51.924;21.448;2023-04-08T00:59:28;100784.53;;;1.39;100.00
45357;BME280;31092;51.924;21.448;2023-04-08T01:04:55;100857.06;;;1.39;100.00
45357;BME280;31092;51.924;21.448;2023-04-08T01:07:31;100742.31;;;0.61;100.00
45357;BME280;31092;51.924;21.448;2023-04-08T01:10:14;100768.22;;;0.56;100.00
45357;BME280;31092;51.924;21.448;2023-04-08T01:12:43;100856.94;;;0.97;100.00
45357;BME280;31092;51.924;21.448;2023-04-08T01:15:12;100689.09;;;-0.12;100.00
45357;BME280;31092;51.924;21.448;2023-04-08T01:17:39;100829.19;;;0.56;100.00
45357;BME280;31092;51.924;21.448;2023-04-08T01:20:06;100732.59;;;0.00;100.00
45357;BME280;31092;51.924;21.448;2023-04-08T01:22:57;100844.84;;;0.61;100.00
45357;BME280;31092;51.924;21.448;2023-04-08T01:25:36;100757.34;;;-0.01;100.00
45357;BME280;31092;51.924;21.448;2023-04-08T01:28:10;100740.00;;;-0.22;100.00
45357;BME280;31092;51.924;21.448;2023-04-08T01:30:38;100819.56;;;0.23;100.00
45357;BME280;31092;51.924;21.448;2023-04-08T01:33:05;100830.41;;;0.19;100.00
45357;BME280;31092;51.924;21.448;2023-04-08T01:35:32;100743.31;;;-0.51;100.00
45357;BME280;31092;51.924;21.448;2023-04-08T01:37:58;100856.44;;;-0.05;100.00
45357;BME280;31092;51.924;21.448;2023-04-08T01:40:24;100855.66;;;-0.07;100.00
45357;BME280;31092;51.924;21.448;2023-04-08T01:42:53;100788.22;;;-0.49;100.00
45357;BME280;31092;51.924;21.448;2023-04-08T01:45:20;100792.97;;;-0.56;100.00
45357;BME280;31092;51.924;21.448;2023-04-08T01:47:47;100760.41;;;-0.74;100.00
45357;BME280;31092;51.924;21.448;2023-04-08T01:50:14;100745.19;;;-0.86;100.00
45357;BME280;31092;51.924;21.448;2023-04-08T01:52:42;100873.06;;;-0.19;100.00
45357;BME280;31092;51.924;21.448;2023-04-08T01:55:08;100869.03;;;-0.26;100.00
45357;BME280;31092;51.924;21.448;2023-04-08T01:57:36;100766.91;;;-0.97;100.00
45357;BME280;31092;51.924;21.448;2023-04-08T02:00:06;100769.78;;;-1.01;100.00
45357;BME280;31092;51.924;21.448;2023-04-08T02:02:35;100865.19;;;-0.54;100.00
45357;BME280;31092;51.924;21.448;2023-04-08T02:05:01;100775.78;;;-1.15;100.00
45357;BME280;31092;51.924;21.448;2023-04-08T02:07:26;100792.44;;;-1.13;100.00
45357;BME280;31092;51.924;21.448;2023-04-08T02:09:52;100852.22;;;-0.76;100.00
45357;BME280;31092;51.924;21.448;2023-04-08T02:12:17;100874.88;;;-0.70;100.00
45357;BME280;31092;51.924;21.448;2023-04-08T02:14:43;100773.50;;;-1.40;100.00
45357;BME280;31092;51.924;21.448;2023-04-08T02:17:38;100878.91;;;-0.80;100.00
45357;BME280;31092;51.924;21.448;2023-04-08T02:25:19;100744.53;;;-1.59;100.00
45357;BME280;31092;51.924;21.448;2023-04-08T02:27:46;100820.16;;;-1.22;100.00
45357;BME280;31092;51.924;21.448;2023-04-08T02:30:14;100837.38;;;-1.13;100.00
45357;BME280;31092;51.924;21.448;2023-04-08T02:32:41;100882.69;;;-0.86;100.00
45357;BME280;31092;51.924;21.448;2023-04-08T02:35:08;100875.09;;;-0.92;100.00
45357;BME280;31092;51.924;21.448;2023-04-08T02:37:35;100798.53;;;-1.47;100.00
45357;BME280;31092;51.924;21.448;2023-04-08T02:40:00;100892.13;;;-0.98;100.00
45357;BME280;31092;51.924;21.448;2023-04-08T02:42:26;100885.19;;;-1.00;100.00
45357;BME280;31092;51.924;21.448;2023-04-08T02:44:51;100889.78;;;-1.04;100.00
45357;BME280;31092;51.924;21.448;2023-04-08T02:47:17;100839.44;;;-1.37;100.00
45357;BME280;31092;51.924;21.448;2023-04-08T02:49:42;100922.56;;;-0.89;100.00
45357;BME280;31092;51.924;21.448;2023-04-08T02:52:08;100843.72;;;-1.34;100.00
45357;BME280;31092;51.924;21.448;2023-04-08T02:54:33;100917.41;;;-0.92;100.00
45357;BME280;31092;51.924;21.448;2023-04-08T02:57:00;100853.13;;;-1.29;100.00
45357;BME280;31092;51.924;21.448;2023-04-08T02:59:26;100842.44;;;-1.45;100.00
45357;BME280;31092;51.924;21.448;2023-04-08T03:01:51;100855.72;;;-1.46;100.00
45357;BME280;31092;51.924;21.448;2023-04-08T03:04:16;100915.13;;;-1.17;100.00
45357;BME280;31092;51.924;21.448;2023-04-08T03:06:42;100902.09;;;-1.22;100.00
45357;BME280;31092;51.924;21.448;2023-04-08T03:09:07;100837.13;;;-1.62;100.00
45357;BME280;31092;51.924;21.448;2023-04-08T03:11:33;100847.44;;;-1.57;100.00
45357;BME280;31092;51.924;21.448;2023-04-08T03:13:59;100919.47;;;-1.16;100.00
45357;BME280;31092;51.924;21.448;2023-04-08T03:16:25;100927.16;;;-1.11;100.00
45357;BME280;31092;51.924;21.448;2023-04-08T03:18:50;100844.97;;;-1.60;100.00
45357;BME280;31092;51.924;21.448;2023-04-08T03:21:16;100854.53;;;-1.58;100.00
45357;BME280;31092;51.924;21.448;2023-04-08T03:23:42;100902.63;;;-1.32;100.00
45357;BME280;31092;51.924;21.448;2023-04-08T03:26:07;100928.34;;;-1.17;100.00
45357;BME280;31092;51.924;21.448;2023-04-08T03:28:33;100910.53;;;-1.32;100.00
45357;BME280;31092;51.924;21.448;2023-04-08T03:30:58;100916.53;;;-1.29;100.00
45357;BME280;31092;51.924;21.448;2023-04-08T03:33:25;100844.75;;;-1.75;100.00
45357;BME280;31092;51.924;21.448;2023-04-08T03:35:52;100946.13;;;-1.21;100.00
45357;BME280;31092;51.924;21.448;2023-04-08T03:38:18;100855.97;;;-1.70;100.00
45357;BME280;31092;51.924;21.448;2023-04-08T03:40:43;100839.13;;;-1.86;100.00
45357;BME280;31092;51.924;21.448;2023-04-08T03:43:09;100886.88;;;-1.53;100.00
45357;BME280;31092;51.924;21.448;2023-04-08T03:45:36;100849.63;;;-1.84;100.00
45357;BME280;31092;51.924;21.448;2023-04-08T03:48:01;100901.13;;;-1.57;100.00
45357;BME280;31092;51.924;21.448;2023-04-08T03:50:27;100862.53;;;-1.78;100.00
45357;BME280;31092;51.924;21.448;2023-04-08T03:52:52;100957.22;;;-1.31;100.00
45357;BME280;31092;51.924;21.448;2023-04-08T03:55:18;100832.06;;;-2.04;100.00
45357;BME280;31092;51.924;21.448;2023-04-08T03:57:43;100955.28;;;-1.28;100.00
45357;BME280;31092;51.924;21.448;2023-04-08T04:00:10;100839.00;;;-2.02;100.00
45357;BME280;31092;51.924;21.448;2023-04-08T04:02:35;100955.19;;;-1.26;100.00
45357;BME280;31092;51.924;21.448;2023-04-08T04:05:01;100849.63;;;-1.84;100.00
45357;BME280;31092;51.924;21.448;2023-04-08T04:07:26;100942.06;;;-1.28;100.00
45357;BME280;31092;51.924;21.448;2023-04-08T04:09:52;100963.41;;;-1.13;100.00
45357;BME280;31092;51.924;21.448;2023-04-08T04:12:20;100974.66;;;-0.91;100.00
45357;BME280;31092;51.924;21.448;2023-04-08T04:14:45;100894.69;;;-1.32;100.00
45357;BME280;31092;51.924;21.448;2023-04-08T04:17:11;100872.97;;;-1.39;100.00
45357;BME280;31092;51.924;21.448;2023-04-08T04:19:36;100872.59;;;-1.12;100.00
45357;BME280;31092;51.924;21.448;2023-04-08T04:22:02;100963.72;;;-0.49;100.00
45357;BME280;31092;51.924;21.448;2023-04-08T04:24:27;100862.06;;;-1.14;100.00
45357;BME280;31092;51.924;21.448;2023-04-08T04:26:53;100867.44;;;-1.15;100.00
45357;BME280;31092;51.924;21.448;2023-04-08T04:29:18;100957.19;;;-0.59;100.00
45357;BME280;31092;51.924;21.448;2023-04-08T04:31:44;100970.34;;;-0.40;100.00
45357;BME280;31092;51.924;21.448;2023-04-08T04:34:10;100962.50;;;-0.41;100.00
45357;BME280;31092;51.924;21.448;2023-04-08T04:36:35;100922.38;;;-0.68;100.00
45357;BME280;31092;51.924;21.448;2023-04-08T04:39:01;100899.06;;;-0.78;100.00
45357;BME280;31092;51.924;21.448;2023-04-08T04:41:26;100908.59;;;-0.75;100.00
45357;BME280;31092;51.924;21.448;2023-04-08T04:43:52;100948.72;;;-0.48;100.00
45357;BME280;31092;51.924;21.448;2023-04-08T04:46:18;100974.88;;;-0.25;100.00
45357;BME280;31092;51.924;21.448;2023-04-08T04:48:43;100960.59;;;-0.22;100.00
45357;BME280;31092;51.924;21.448;2023-04-08T04:51:09;100961.00;;;-0.30;100.00
45357;BME280;31092;51.924;21.448;2023-04-08T04:53:34;100933.53;;;-0.44;100.00
45357;BME280;31092;51.924;21.448;2023-04-08T04:56:00;100970.22;;;-0.04;100.00
45357;BME280;31092;51.924;21.448;2023-04-08T04:58:26;100907.19;;;-0.30;100.00
45357;BME280;31092;51.924;21.448;2023-04-08T05:00:51;100979.78;;;0.16;100.00
45357;BME280;31092;51.924;21.448;2023-04-08T05:03:17;100902.03;;;-0.16;100.00
45357;BME280;31092;51.924;21.448;2023-04-08T05:05:42;100867.50;;;-0.30;100.00
45357;BME280;31092;51.924;21.448;2023-04-08T05:08:08;100975.66;;;0.44;100.00
45357;BME280;31092;51.924;21.448;2023-04-08T05:10:33;100915.44;;;0.14;100.00
45357;BME280;31092;51.924;21.448;2023-04-08T05:12:59;100975.09;;;0.70;100.00
45357;BME280;31092;51.924;21.448;2023-04-08T05:15:24;100991.69;;;0.90;100.00
45357;BME280;31092;51.924;21.448;2023-04-08T05:17:50;100972.50;;;0.85;100.00
45357;BME280;31092;51.924;21.448;2023-04-08T05:20:16;101004.09;;;1.05;100.00
45357;BME280;31092;51.924;21.448;2023-04-08T05:22:41;100997.59;;;1.11;100.00
45357;BME280;31092;51.924;21.448;2023-04-08T05:25:09;100960.13;;;1.01;100.00
45357;BME280;31092;51.924;21.448;2023-04-08T05:27:34;100897.75;;;0.78;100.00
45357;BME280;31092;51.924;21.448;2023-04-08T05:30:00;100924.44;;;0.91;100.00
45357;BME280;31092;51.924;21.448;2023-04-08T05:32:26;100994.34;;;1.52;100.00
45357;BME280;31092;51.924;21.448;2023-04-08T05:34:51;100967.31;;;1.45;100.00
45357;BME280;31092;51.924;21.448;2023-04-08T05:37:17;100906.13;;;1.32;100.00
45357;BME280;31092;51.924;21.448;2023-04-08T05:39:42;100998.09;;;2.08;100.00
45357;BME280;31092;51.924;21.448;2023-04-08T05:42:07;100936.88;;;1.95;100.00
45357;BME280;31092;51.924;21.448;2023-04-08T05:44:33;100977.41;;;2.42;100.00
45357;BME280;31092;51.924;21.448;2023-04-08T05:46:58;100982.47;;;2.60;100.00
45357;BME280;31092;51.924;21.448;2023-04-08T05:49:24;100910.09;;;2.41;100.00
45357;BME280;31092;51.924;21.448;2023-04-08T05:51:50;100956.84;;;2.86;100.00
45357;BME280;31092;51.924;21.448;2023-04-08T05:54:15;100928.44;;;2.87;100.00
45357;BME280;31092;51.924;21.448;2023-04-08T05:56:41;100917.53;;;3.04;100.00
45357;BME280;31092;51.924;21.448;2023-04-08T05:59:06;100964.31;;;3.48;100.00
45357;BME280;31092;51.924;21.448;2023-04-08T06:01:32;100967.25;;;3.71;100.00
45357;BME280;31092;51.924;21.448;2023-04-08T06:03:57;100909.03;;;3.52;100.00
45357;BME280;31092;51.924;21.448;2023-04-08T06:06:23;101012.53;;;4.23;100.00
45357;BME280;31092;51.924;21.448;2023-04-08T06:08:52;100999.72;;;4.41;100.00
45357;BME280;31092;51.924;21.448;2023-04-08T06:11:17;100942.66;;;4.18;100.00
45357;BME280;31092;51.924;21.448;2023-04-08T06:13:43;100918.13;;;4.13;100.00
45357;BME280;31092;51.924;21.448;2023-04-08T06:16:13;100892.44;;;3.99;100.00
45357;BME280;31092;51.924;21.448;2023-04-08T06:18:39;100927.50;;;4.31;100.00
45357;BME280;31092;51.924;21.448;2023-04-08T06:21:04;100927.47;;;4.44;100.00
45357;BME280;31092;51.924;21.448;2023-04-08T06:23:31;100927.88;;;4.51;100.00
45357;BME280;31092;51.924;21.448;2023-04-08T06:25:56;101015.06;;;5.13;100.00
45357;BME280;31092;51.924;21.448;2023-04-08T06:28:23;100929.84;;;4.73;100.00
45357;BME280;31092;51.924;21.448;2023-04-08T06:30:48;101017.22;;;5.32;100.00
45357;BME280;31092;51.924;21.448;2023-04-08T06:33:14;101014.84;;;5.40;100.00
45357;BME280;31092;51.924;21.448;2023-04-08T06:35:40;101011.72;;;5.46;100.00
45357;BME280;31092;51.924;21.448;2023-04-08T06:38:06;101004.91;;;5.42;100.00
45357;BME280;31092;51.924;21.448;2023-04-08T06:40:31;100959.22;;;5.34;100.00
45357;BME280;31092;51.924;21.448;2023-04-08T06:42:57;100947.66;;;5.33;100.00
45357;BME280;31092;51.924;21.448;2023-04-08T06:45:22;100988.72;;;5.67;100.00
45357;BME280;31092;51.924;21.448;2023-04-08T06:47:48;100917.41;;;5.33;100.00
45357;BME280;31092;51.924;21.448;2023-04-08T06:50:13;100949.22;;;5.60;100.00
45357;BME280;31092;51.924;21.448;2023-04-08T06:52:39;101009.41;;;6.00;100.00
45357;BME280;31092;51.924;21.448;2023-04-08T06:55:04;101012.00;;;6.13;100.00
45357;BME280;31092;51.924;21.448;2023-04-08T06:57:30;101018.44;;;6.22;100.00
45357;BME280;31092;51.924;21.448;2023-04-08T06:59:55;100935.28;;;5.79;100.00
45357;BME280;31092;51.924;21.448;2023-04-08T07:02:21;101021.50;;;6.29;100.00
45357;BME280;31092;51.924;21.448;2023-04-08T07:04:47;101020.56;;;6.41;100.00
45357;BME280;31092;51.924;21.448;2023-04-08T07:07:13;100978.31;;;6.22;100.00
45357;BME280;31092;51.924;21.448;2023-04-08T07:09:39;101006.69;;;6.47;100.00
45357;BME280;31092;51.924;21.448;2023-04-08T07:12:07;101012.53;;;6.52;100.00
45357;BME280;31092;51.924;21.448;2023-04-08T07:14:33;101029.94;;;6.69;100.00
45357;BME280;31092;51.924;21.448;2023-04-08T07:16:58;100962.41;;;6.43;100.00
45357;BME280;31092;51.924;21.448;2023-04-08T07:19:24;100958.41;;;6.48;100.00
45357;BME280;31092;51.924;21.448;2023-04-08T07:21:50;100988.56;;;6.73;100.00
45357;BME280;31092;51.924;21.448;2023-04-08T07:24:16;101043.91;;;7.06;100.00
45357;BME280;31092;51.924;21.448;2023-04-08T07:26:42;101051.56;;;7.11;100.00
45357;BME280;31092;51.924;21.448;2023-04-08T07:29:08;100943.91;;;6.62;100.00
45357;BME280;31092;51.924;21.448;2023-04-08T07:31:34;100991.69;;;7.01;100.00
45357;BME280;31092;51.924;21.448;2023-04-08T07:33:59;101053.72;;;7.51;100.00
45357;BME280;31092;51.924;21.448;2023-04-08T07:36:25;100949.91;;;7.09;100.00
45357;BME280;31092;51.924;21.448;2023-04-08T07:38:50;100961.31;;;7.23;100.00
45357;BME280;31092;51.924;21.448;2023-04-08T07:41:16;100980.53;;;7.28;100.00
45357;BME280;31092;51.924;21.448;2023-04-08T07:43:41;101043.75;;;7.74;100.00
45357;BME280;31092;51.924;21.448;2023-04-08T07:46:07;101057.13;;;7.85;100.00
45357;BME280;31092;51.924;21.448;2023-04-08T07:48:34;100972.16;;;7.53;100.00
45357;BME280;31092;51.924;21.448;2023-04-08T07:51:07;101005.69;;;7.80;100.00
45357;BME280;31092;51.924;21.448;2023-04-08T07:53:33;100984.16;;;7.70;100.00
45357;BME280;31092;51.924;21.448;2023-04-08T07:56:00;101036.66;;;8.05;100.00
45357;BME280;31092;51.924;21.448;2023-04-08T07:58:25;101041.50;;;8.11;100.00
45357;BME280;31092;51.924;21.448;2023-04-08T08:00:52;101052.88;;;8.24;100.00
45357;BME280;31092;51.924;21.448;2023-04-08T08:03:17;101037.03;;;8.21;100.00
45357;BME280;31092;51.924;21.448;2023-04-08T08:05:43;101048.94;;;8.39;100.00
45357;BME280;31092;51.924;21.448;2023-04-08T08:08:08;100906.25;;;7.72;100.00
45357;BME280;31092;51.924;21.448;2023-04-08T08:10:37;100974.94;;;8.26;100.00
45357;BME280;31092;51.924;21.448;2023-04-08T08:13:03;101042.69;;;8.91;100.00
45357;BME280;31092;51.924;21.448;2023-04-08T08:15:29;101032.94;;;8.90;100.00
45357;BME280;31092;51.924;21.448;2023-04-08T08:17:54;100961.53;;;8.56;100.00
45357;BME280;31092;51.924;21.448;2023-04-08T08:20:20;101013.91;;;9.12;100.00
45357;BME280;31092;51.924;21.448;2023-04-08T08:22:45;100979.22;;;8.99;100.00
45357;BME280;31092;51.924;21.448;2023-04-08T08:25:11;100963.25;;;8.98;100.00
45357;BME280;31092;51.924;21.448;2023-04-08T08:27:36;100967.53;;;9.49;100.00
45357;BME280;31092;51.924;21.448;2023-04-08T08:30:04;100938.50;;;9.81;100.00
45357;BME280;31092;51.924;21.448;2023-04-08T08:32:30;100962.38;;;10.23;100.00
45357;BME280;31092;51.924;21.448;2023-04-08T08:34:55;101037.41;;;10.55;100.00
45357;BME280;31092;51.924;21.448;2023-04-08T08:37:21;100965.06;;;10.14;100.00
45357;BME280;31092;51.924;21.448;2023-04-08T08:39:46;100961.56;;;10.03;100.00
45357;BME280;31092;51.924;21.448;2023-04-08T08:42:22;101050.16;;;10.63;100.00
45357;BME280;31092;51.924;21.448;2023-04-08T08:44:48;101020.13;;;10.58;100.00
45357;BME280;31092;51.924;21.448;2023-04-08T08:47:14;101033.88;;;10.65;100.00
45357;BME280;31092;51.924;21.448;2023-04-08T08:49:40;101036.09;;;10.69;100.00
45357;BME280;31092;51.924;21.448;2023-04-08T08:52:06;101034.53;;;10.67;100.00
45357;BME280;31092;51.924;21.448;2023-04-08T08:54:31;101007.03;;;10.73;100.00
45357;BME280;31092;51.924;21.448;2023-04-08T08:56:57;100998.84;;;11.20;100.00
45357;BME280;31092;51.924;21.448;2023-04-08T08:59:23;100982.91;;;11.62;100.00
45357;BME280;31092;51.924;21.448;2023-04-08T09:01:48;101004.59;;;12.06;100.00
45357;BME280;31092;51.924;21.448;2023-04-08T09:04:18;101030.31;;;12.36;100.00
45357;BME280;31092;51.924;21.448;2023-04-08T09:06:46;101048.31;;;12.54;100.00
45357;BME280;31092;51.924;21.448;2023-04-08T09:09:12;100973.75;;;12.35;100.00
45357;BME280;31092;51.924;21.448;2023-04-08T09:11:40;101024.81;;;12.80;100.00
45357;BME280;31092;51.924;21.448;2023-04-08T09:14:24;100964.03;;;12.50;100.00
45357;BME280;31092;51.924;21.448;2023-04-08T09:16:51;101011.72;;;13.28;100.00
45357;BME280;31092;51.924;21.448;2023-04-08T09:19:17;101028.53;;;13.72;100.00
45357;BME280;31092;51.924;21.448;2023-04-08T09:21:43;101041.59;;;13.93;100.00
45357;BME280;31092;51.924;21.448;2023-04-08T09:24:26;100976.41;;;13.46;100.00
45357;BME280;31092;51.924;21.448;2023-04-08T09:26:52;100974.03;;;13.43;100.00
45357;BME280;31092;51.924;21.448;2023-04-08T09:29:22;100988.41;;;13.51;100.00
45357;BME280;31092;51.924;21.448;2023-04-08T09:31:52;101029.75;;;13.78;100.00
45357;BME280;31092;51.924;21.448;2023-04-08T09:34:18;100979.94;;;13.54;100.00
45357;BME280;31092;51.924;21.448;2023-04-08T09:36:46;101014.50;;;13.85;100.00
45357;BME280;31092;51.924;21.448;2023-04-08T09:39:13;100950.38;;;13.53;100.00
45357;BME280;31092;51.924;21.448;2023-04-08T09:41:40;100948.31;;;13.79;100.00
45357;BME280;31092;51.924;21.448;2023-04-08T09:44:08;100962.19;;;14.01;100.00
45357;BME280;31092;51.924;21.448;2023-04-08T09:49:25;100951.72;;;13.73;100.00
45357;BME280;31092;51.924;21.448;2023-04-08T09:54:31;100946.28;;;13.89;100.00
45357;BME280;31092;51.924;21.448;2023-04-08T09:57:04;101025.81;;;14.46;100.00
45357;BME280;31092;51.924;21.448;2023-04-08T09:59:33;100958.97;;;13.97;100.00
45357;BME280;31092;51.924;21.448;2023-04-08T10:02:06;101015.34;;;14.51;100.00
45357;BME280;31092;51.924;21.448;2023-04-08T10:04:38;100979.13;;;14.03;100.00
45357;BME280;31092;51.924;21.448;2023-04-08T10:07:07;101026.22;;;14.02;100.00
45357;BME280;31092;51.924;21.448;2023-04-08T10:09:34;101018.41;;;14.15;100.00
45357;BME280;31092;51.924;21.448;2023-04-08T10:12:00;100947.16;;;13.82;100.00
45357;BME280;31092;51.924;21.448;2023-04-08T10:14:28;101005.16;;;13.55;100.00
45357;BME280;31092;51.924;21.448;2023-04-08T10:17:32;100969.69;;;13.07;100.00
45357;BME280;31092;51.924;21.448;2023-04-08T10:20:01;101032.19;;;13.38;100.00
45357;BME280;31092;51.924;21.448;2023-04-08T10:27:40;100886.03;;;11.51;100.00
45357;BME280;31092;51.924;21.448;2023-04-08T10:32:52;100945.38;;;11.87;100.00
45357;BME280;31092;51.924;21.448;2023-04-08T10:35:28;100929.66;;;11.64;100.00
45357;BME280;31092;51.924;21.448;2023-04-08T10:38:00;100988.50;;;12.49;100.00
45357;BME280;31092;51.924;21.448;2023-04-08T10:40:26;100946.38;;;12.64;100.00
45357;BME280;31092;51.924;21.448;2023-04-08T10:42:55;100982.34;;;12.99;100.00
45357;BME280;31092;51.924;21.448;2023-04-08T10:45:21;101013.59;;;13.52;100.00
45357;BME280;31092;51.924;21.448;2023-04-08T10:47:46;100941.97;;;13.13;100.00
45357;BME280;31092;51.924;21.448;2023-04-08T10:50:17;100926.59;;;13.14;100.00
45357;BME280;31092;51.924;21.448;2023-04-08T10:52:51;100997.72;;;13.57;100.00
45357;BME280;31092;51.924;21.448;2023-04-08T10:55:26;100934.31;;;12.92;100.00
45357;BME280;31092;51.924;21.448;2023-04-08T10:57:53;100996.69;;;13.50;100.00
45357;BME280;31092;51.924;21.448;2023-04-08T11:00:31;100945.09;;;13.43;100.00
45357;BME280;31092;51.924;21.448;2023-04-08T11:03:03;100929.56;;;13.78;100.00
45357;BME280;31092;51.924;21.448;2023-04-08T11:05:30;100929.34;;;14.20;100.00
45357;BME280;31092;51.924;21.448;2023-04-08T11:07:57;100912.72;;;14.31;100.00
45357;BME280;31092;51.924;21.448;2023-04-08T11:10:24;100912.06;;;14.21;100.00
45357;BME280;31092;51.924;21.448;2023-04-08T11:12:50;100918.34;;;14.13;100.00
45357;BME280;31092;51.924;21.448;2023-04-08T11:15:16;100905.44;;;14.16;100.00
45357;BME280;31092;51.924;21.448;2023-04-08T11:17:42;100909.97;;;14.40;100.00
45357;BME280;31092;51.924;21.448;2023-04-08T11:20:09;100962.44;;;14.55;100.00
45357;BME280;31092;51.924;21.448;2023-04-08T11:22:35;100918.69;;;13.94;100.00
45357;BME280;31092;51.924;21.448;2023-04-08T11:25:01;101002.81;;;14.17;100.00
45357;BME280;31092;51.924;21.448;2023-04-08T11:27:27;100960.19;;;13.78;100.00
45357;BME280;31092;51.924;21.448;2023-04-08T11:29:54;100981.50;;;13.98;100.00
45357;BME280;31092;51.924;21.448;2023-04-08T11:32:21;100985.22;;;13.88;100.00
45357;BME280;31092;51.924;21.448;2023-04-08T11:34:50;100922.94;;;13.31;100.00
45357;BME280;31092;51.924;21.448;2023-04-08T11:37:17;100916.78;;;13.13;100.00
45357;BME280;31092;51.924;21.448;2023-04-08T11:39:43;100984.19;;;13.57;100.00
45357;BME280;31092;51.924;21.448;2023-04-08T11:42:09;100965.50;;;13.21;100.00
45357;BME280;31092;51.924;21.448;2023-04-08T11:44:50;100967.66;;;12.67;100.00
45357;BME280;31092;51.924;21.448;2023-04-08T11:47:15;100969.91;;;12.45;100.00
45357;BME280;31092;51.924;21.448;2023-04-08T11:49:45;100965.31;;;12.72;100.00
45357;BME280;31092;51.924;21.448;2023-04-08T11:52:11;100897.09;;;12.86;100.00
45357;BME280;31092;51.924;21.448;2023-04-08T11:54:40;100823.56;;;12.66;100.00
45357;BME280;31092;51.924;21.448;2023-04-08T11:57:07;100898.59;;;13.31;100.00
45357;BME280;31092;51.924;21.448;2023-04-08T11:59:35;100903.81;;;13.33;100.00
45357;BME280;31092;51.924;21.448;2023-04-08T12:02:01;100910.75;;;13.27;100.00
45357;BME280;31092;51.924;21.448;2023-04-08T12:04:27;100968.31;;;13.78;100.00
45357;BME280;31092;51.924;21.448;2023-04-08T12:06:54;100879.97;;;13.36;100.00
45357;BME280;31092;51.924;21.448;2023-04-08T12:09:21;100855.97;;;13.41;100.00
45357;BME280;31092;51.924;21.448;2023-04-08T12:11:46;100883.03;;;13.66;100.00
45357;BME280;31092;51.924;21.448;2023-04-08T12:14:12;100884.88;;;13.82;100.00
45357;BME280;31092;51.924;21.448;2023-04-08T12:16:38;100872.50;;;13.79;100.00
45357;BME280;31092;51.924;21.448;2023-04-08T12:19:04;100950.53;;;13.92;100.00
45357;BME280;31092;51.924;21.448;2023-04-08T12:21:30;100954.25;;;13.75;100.00
45357;BME280;31092;51.924;21.448;2023-04-08T12:23:56;100891.63;;;13.29;100.00
45357;BME280;31092;51.924;21.448;2023-04-08T12:26:22;100929.97;;;13.16;100.00
45357;BME280;31092;51.924;21.448;2023-04-08T12:28:48;100955.25;;;13.49;100.00
45357;BME280;31092;51.924;21.448;2023-04-08T12:31:13;100891.63;;;13.37;100.00
45357;BME280;31092;51.924;21.448;2023-04-08T12:33:39;100875.91;;;13.40;100.00
45357;BME280;31092;51.924;21.448;2023-04-08T12:36:05;100874.25;;;13.31;100.00
45357;BME280;31092;51.924;21.448;2023-04-08T12:38:30;100930.06;;;13.65;100.00
45357;BME280;31092;51.924;21.448;2023-04-08T12:40:57;100945.13;;;13.68;100.00
45357;BME280;31092;51.924;21.448;2023-04-08T12:43:23;100941.72;;;13.65;100.00
45357;BME280;31092;51.924;21.448;2023-04-08T12:45:49;100864.91;;;13.34;100.00
45357;BME280;31092;51.924;21.448;2023-04-08T12:48:14;100906.22;;;13.77;100.00
45357;BME280;31092;51.924;21.448;2023-04-08T12:50:40;100849.88;;;13.39;100.00
45357;BME280;31092;51.924;21.448;2023-04-08T12:53:05;100878.63;;;13.57;100.00